sensor_id;sensor_type;location;lat;lon;timestamp;P1;durP1;ratioP1;P2;durP2;ratioP2
20230;SDS011;10274;49.022;9.338;2023-04-08T00:01:07;4.60;;;2.80;;
20230;SDS011;10274;49.022;9.338;2023-04-08T00:03:34;2.83;;;2.50;;
20230;SDS011;10274;49.022;9.338;2023-04-08T00:06:01;3.43;;;2.80;;
20230;SDS011;10274;49.022;9.338;2023-04-08T00:08:30;3.07;;;2.70;;
20230;SDS011;10274;49.022;9.338;2023-04-08T00:10:57;3.50;;;2.67;;
20230;SDS011;10274;49.022;9.338;2023-04-08T00:13:24;3.40;;;3.10;;
20230;SDS011;10274;49.022;9.338;2023-04-08T00:15:51;3.53;;;2.87;;
20230;SDS011;10274;49.022;9.338;2023-04-08T00:18:18;3.20;;;2.90;;
20230;SDS011;10274;49.022;9.338;2023-04-08T00:20:44;3.67;;;2.97;;
20230;SDS011;10274;49.022;9.338;2023-04-08T00:23:11;4.77;;;3.40;;
20230;SDS011;10274;49.022;9.338;2023-04-08T00:25:39;4.87;;;3.60;;
20230;SDS011;10274;49.022;9.338;2023-04-08T00:28:06;4.70;;;3.83;;
20230;SDS011;10274;49.022;9.338;2023-04-08T00:30:33;5.30;;;3.43;;
20230;SDS011;10274;49.022;9.338;2023-04-08T00:33:00;4.03;;;3.63;;
20230;SDS011;10274;49.022;9.338;2023-04-08T00:35:27;4.30;;;3.33;;
20230;SDS011;10274;49.022;9.338;2023-04-08T00:37:54;3.60;;;3.20;;
20230;SDS011;10274;49.022;9.338;2023-04-08T00:40:20;3.70;;;3.20;;
20230;SDS011;10274;49.022;9.338;2023-04-08T00:42:48;4.43;;;3.57;;
20230;SDS011;10274;49.022;9.338;2023-04-08T00:45:15;3.47;;;2.90;;
20230;SDS011;10274;49.022;9.338;2023-04-08T00:47:42;4.47;;;3.07;;
20230;SDS011;10274;49.022;9.338;2023-04-08T00:50:09;4.30;;;3.40;;
20230;SDS011;10274;49.022;9.338;2023-04-08T00:52:36;2.90;;;2.60;;
20230;SDS011;10274;49.022;9.338;2023-04-08T00:55:03;4.37;;;3.40;;
20230;SDS011;10274;49.022;9.338;2023-04-08T00:57:31;3.40;;;3.03;;
20230;SDS011;10274;49.022;9.338;2023-04-08T00:59:59;4.73;;;3.20;;
20230;SDS011;10274;49.022;9.338;2023-04-08T01:02:29;4.03;;;3.63;;
20230;SDS011;10274;49.022;9.338;2023-04-08T01:05:01;5.20;;;3.13;;
20230;SDS011;10274;49.022;9.338;2023-04-08T01:07:30;3.53;;;3.10;;
20230;SDS011;10274;49.022;9.338;2023-04-08T01:10:01;3.73;;;3.00;;
20230;SDS011;10274;49.022;9.338;2023-04-08T01:12:30;5.43;;;3.67;;
20230;SDS011;10274;49.022;9.338;2023-04-08T01:15:03;3.80;;;2.83;;
20230;SDS011;10274;49.022;9.338;2023-04-08T01:17:32;4.20;;;3.13;;
20230;SDS011;10274;49.022;9.338;2023-04-08T01:20:00;3.60;;;3.17;;
20230;SDS011;10274;49.022;9.338;2023-04-08T01:22:32;4.23;;;2.73;;
20230;SDS011;10274;49.022;9.338;2023-04-08T01:25:07;3.60;;;2.67;;
20230;SDS011;10274;49.022;9.338;2023-04-08T01:27:42;4.43;;;3.23;;
20230;SDS011;10274;49.022;9.338;2023-04-08T01:30:09;3.67;;;3.30;;
20230;SDS011;10274;49.022;9.338;2023-04-08T01:32:37;3.97;;;3.17;;
20230;SDS011;10274;49.022;9.338;2023-04-08T01:35:06;4.90;;;3.87;;
20230;SDS011;10274;49.022;9.338;2023-04-08T01:37:34;4.13;;;3.50;;
20230;SDS011;10274;49.022;9.338;2023-04-08T01:40:02;3.60;;;3.30;;
20230;SDS011;10274;49.022;9.338;2023-04-08T01:42:32;3.70;;;2.90;;
20230;SDS011;10274;49.022;9.338;2023-04-08T01:45:01;4.47;;;3.27;;
20230;SDS011;10274;49.022;9.338;2023-04-08T01:47:30;4.27;;;3.13;;
20230;SDS011;10274;49.022;9.338;2023-04-08T01:49:58;4.80;;;3.40;;
20230;SDS011;10274;49.022;9.338;2023-04-08T01:52:26;4.13;;;3.47;;
20230;SDS011;10274;49.022;9.338;2023-04-08T01:54:55;3.97;;;3.17;;
20230;SDS011;10274;49.022;9.338;2023-04-08T01:57:23;4.57;;;3.13;;
20230;SDS011;10274;49.022;9.338;2023-04-08T01:59:52;2.97;;;2.60;;
20230;SDS011;10274;49.022;9.338;2023-04-08T02:02:26;3.77;;;3.40;;
20230;SDS011;10274;49.022;9.338;2023-04-08T02:04:53;5.43;;;3.37;;
20230;SDS011;10274;49.022;9.338;2023-04-08T02:07:20;3.90;;;3.30;;
20230;SDS011;10274;49.022;9.338;2023-04-08T02:09:48;4.03;;;3.50;;
20230;SDS011;10274;49.022;9.338;2023-04-08T02:12:15;4.80;;;3.80;;
20230;SDS011;10274;49.022;9.338;2023-04-08T02:14:42;3.87;;;3.00;;
20230;SDS011;10274;49.022;9.338;2023-04-08T02:17:10;4.33;;;2.60;;
20230;SDS011;10274;49.022;9.338;2023-04-08T02:19:43;5.77;;;3.60;;
20230;SDS011;10274;49.022;9.338;2023-04-08T02:22:16;3.73;;;3.37;;
20230;SDS011;10274;49.022;9.338;2023-04-08T02:24:57;3.93;;;2.83;;
20230;SDS011;10274;49.022;9.338;2023-04-08T02:27:25;3.10;;;2.80;;
20230;SDS011;10274;49.022;9.338;2023-04-08T02:29:53;3.60;;;2.60;;
20230;SDS011;10274;49.022;9.338;2023-04-08T02:32:22;2.77;;;2.40;;
20230;SDS011;10274;49.022;9.338;2023-04-08T02:34:51;3.17;;;2.67;;
20230;SDS011;10274;49.022;9.338;2023-04-08T02:37:19;3.47;;;2.87;;
20230;SDS011;10274;49.022;9.338;2023-04-08T02:39:46;3.07;;;2.77;;
20230;SDS011;10274;49.022;9.338;2023-04-08T02:42:12;3.83;;;3.20;;
20230;SDS011;10274;49.022;9.338;2023-04-08T02:44:39;4.53;;;3.93;;
20230;SDS011;10274;49.022;9.338;2023-04-08T02:47:06;4.43;;;3.97;;
20230;SDS011;10274;49.022;9.338;2023-04-08T02:49:33;4.27;;;3.73;;
20230;SDS011;10274;49.022;9.338;2023-04-08T02:52:01;4.77;;;3.67;;
20230;SDS011;10274;49.022;9.338;2023-04-08T02:54:28;4.47;;;3.27;;
20230;SDS011;10274;49.022;9.338;2023-04-08T02:56:55;4.00;;;3.10;;
20230;SDS011;10274;49.022;9.338;2023-04-08T02:59:21;4.03;;;2.93;;
20230;SDS011;10274;49.022;9.338;2023-04-08T03:01:48;4.10;;;3.60;;
20230;SDS011;10274;49.022;9.338;2023-04-08T03:04:15;3.30;;;3.00;;
20230;SDS011;10274;49.022;9.338;2023-04-08T03:06:41;4.13;;;3.60;;
20230;SDS011;10274;49.022;9.338;2023-04-08T03:09:09;3.43;;;3.00;;
20230;SDS011;10274;49.022;9.338;2023-04-08T03:11:36;4.53;;;3.30;;
20230;SDS011;10274;49.022;9.338;2023-04-08T03:14:03;4.43;;;3.60;;
20230;SDS011;10274;49.022;9.338;2023-04-08T03:16:30;3.80;;;3.37;;
20230;SDS011;10274;49.022;9.338;2023-04-08T03:18:56;4.73;;;4.23;;
20230;SDS011;10274;49.022;9.338;2023-04-08T03:21:23;4.87;;;3.87;;
20230;SDS011;10274;49.022;9.338;2023-04-08T03:23:51;5.77;;;3.13;;
20230;SDS011;10274;49.022;9.338;2023-04-08T03:26:19;4.07;;;3.67;;
20230;SDS011;10274;49.022;9.338;2023-04-08T03:28:46;6.20;;;4.53;;
20230;SDS011;10274;49.022;9.338;2023-04-08T03:31:12;5.77;;;3.73;;
20230;SDS011;10274;49.022;9.338;2023-04-08T03:33:39;4.50;;;3.40;;
20230;SDS011;10274;49.022;9.338;2023-04-08T03:36:06;4.60;;;3.53;;
20230;SDS011;10274;49.022;9.338;2023-04-08T03:38:33;4.57;;;3.37;;
20230;SDS011;10274;49.022;9.338;2023-04-08T03:41:00;3.80;;;3.40;;
20230;SDS011;10274;49.022;9.338;2023-04-08T03:43:28;4.40;;;3.60;;
20230;SDS011;10274;49.022;9.338;2023-04-08T03:45:55;5.63;;;4.43;;
20230;SDS011;10274;49.022;9.338;2023-04-08T03:48:22;6.30;;;4.57;;
20230;SDS011;10274;49.022;9.338;2023-04-08T03:50:48;5.67;;;5.00;;
20230;SDS011;10274;49.022;9.338;2023-04-08T03:53:15;5.40;;;3.97;;
20230;SDS011;10274;49.022;9.338;2023-04-08T03:55:42;6.10;;;4.80;;
20230;SDS011;10274;49.022;9.338;2023-04-08T03:58:08;6.63;;;4.53;;
20230;SDS011;10274;49.022;9.338;2023-04-08T04:00:36;5.17;;;4.63;;
20230;SDS011;10274;49.022;9.338;2023-04-08T04:03:03;6.67;;;4.80;;
20230;SDS011;10274;49.022;9.338;2023-04-08T04:05:30;6.00;;;4.70;;
20230;SDS011;10274;49.022;9.338;2023-04-08T04:07:57;7.07;;;5.30;;
20230;SDS011;10274;49.022;9.338;2023-04-08T04:10:23;6.87;;;5.73;;
20230;SDS011;10274;49.022;9.338;2023-04-08T04:12:50;7.60;;;6.70;;
20230;SDS011;10274;49.022;9.338;2023-04-08T04:15:17;9.67;;;6.67;;
20230;SDS011;10274;49.022;9.338;2023-04-08T04:17:46;8.10;;;6.33;;
20230;SDS011;10274;49.022;9.338;2023-04-08T04:20:13;10.20;;;6.47;;
20230;SDS011;10274;49.022;9.338;2023-04-08T04:22:40;8.23;;;6.50;;
20230;SDS011;10274;49.022;9.338;2023-04-08T04:25:07;9.47;;;6.83;;
20230;SDS011;10274;49.022;9.338;2023-04-08T04:27:34;11.57;;;8.10;;
20230;SDS011;10274;49.022;9.338;2023-04-08T04:30:01;13.13;;;9.40;;
20230;SDS011;10274;49.022;9.338;2023-04-08T04:32:29;12.47;;;8.90;;
20230;SDS011;10274;49.022;9.338;2023-04-08T04:34:57;12.30;;;7.83;;
20230;SDS011;10274;49.022;9.338;2023-04-08T04:37:24;13.00;;;8.97;;
20230;SDS011;10274;49.022;9.338;2023-04-08T04:39:51;11.70;;;8.07;;
20230;SDS011;10274;49.022;9.338;2023-04-08T04:42:18;10.90;;;7.53;;
20230;SDS011;10274;49.022;9.338;2023-04-08T04:44:44;10.57;;;7.80;;
20230;SDS011;10274;49.022;9.338;2023-04-08T04:47:11;12.27;;;8.77;;
20230;SDS011;10274;49.022;9.338;2023-04-08T04:49:38;12.67;;;7.90;;
20230;SDS011;10274;49.022;9.338;2023-04-08T04:52:06;13.17;;;8.90;;
20230;SDS011;10274;49.022;9.338;2023-04-08T04:54:33;11.40;;;8.07;;
20230;SDS011;10274;49.022;9.338;2023-04-08T04:56:59;13.80;;;7.80;;
20230;SDS011;10274;49.022;9.338;2023-04-08T04:59:26;11.37;;;8.20;;
20230;SDS011;10274;49.022;9.338;2023-04-08T05:01:53;10.03;;;7.13;;
20230;SDS011;10274;49.022;9.338;2023-04-08T05:04:21;11.20;;;7.87;;
20230;SDS011;10274;49.022;9.338;2023-04-08T05:06:48;11.93;;;7.80;;
20230;SDS011;10274;49.022;9.338;2023-04-08T05:09:16;11.50;;;7.67;;
20230;SDS011;10274;49.022;9.338;2023-04-08T05:11:42;12.30;;;8.47;;
20230;SDS011;10274;49.022;9.338;2023-04-08T05:14:09;10.07;;;8.07;;
20230;SDS011;10274;49.022;9.338;2023-04-08T05:16:36;10.17;;;7.17;;
20230;SDS011;10274;49.022;9.338;2023-04-08T05:19:03;10.17;;;6.57;;
20230;SDS011;10274;49.022;9.338;2023-04-08T05:21:29;10.57;;;6.77;;
20230;SDS011;10274;49.022;9.338;2023-04-08T05:23:57;9.10;;;6.90;;
20230;SDS011;10274;49.022;9.338;2023-04-08T05:26:25;9.50;;;7.47;;
20230;SDS011;10274;49.022;9.338;2023-04-08T05:28:52;11.23;;;7.83;;
20230;SDS011;10274;49.022;9.338;2023-04-08T05:31:18;9.63;;;7.33;;
20230;SDS011;10274;49.022;9.338;2023-04-08T05:33:45;10.13;;;7.23;;
20230;SDS011;10274;49.022;9.338;2023-04-08T05:36:12;9.40;;;7.03;;
20230;SDS011;10274;49.022;9.338;2023-04-08T05:38:39;14.33;;;7.53;;
20230;SDS011;10274;49.022;9.338;2023-04-08T05:41:07;11.13;;;6.90;;
20230;SDS011;10274;49.022;9.338;2023-04-08T05:43:35;10.97;;;7.93;;
20230;SDS011;10274;49.022;9.338;2023-04-08T05:46:04;10.50;;;7.57;;
20230;SDS011;10274;49.022;9.338;2023-04-08T05:48:32;10.93;;;8.20;;
20230;SDS011;10274;49.022;9.338;2023-04-08T05:50:59;11.50;;;7.67;;
20230;SDS011;10274;49.022;9.338;2023-04-08T05:53:26;10.33;;;7.43;;
20230;SDS011;10274;49.022;9.338;2023-04-08T05:55:52;11.00;;;8.07;;
20230;SDS011;10274;49.022;9.338;2023-04-08T05:58:19;10.63;;;7.17;;
20230;SDS011;10274;49.022;9.338;2023-04-08T06:00:47;10.47;;;7.70;;
20230;SDS011;10274;49.022;9.338;2023-04-08T06:03:14;8.20;;;6.60;;
20230;SDS011;10274;49.022;9.338;2023-04-08T06:05:40;9.27;;;6.33;;
20230;SDS011;10274;49.022;9.338;2023-04-08T06:08:07;10.30;;;7.20;;
20230;SDS011;10274;49.022;9.338;2023-04-08T06:10:34;9.40;;;6.70;;
20230;SDS011;10274;49.022;9.338;2023-04-08T06:13:00;9.87;;;6.53;;
20230;SDS011;10274;49.022;9.338;2023-04-08T06:15:27;11.60;;;6.80;;
20230;SDS011;10274;49.022;9.338;2023-04-08T06:17:55;7.83;;;6.00;;
20230;SDS011;10274;49.022;9.338;2023-04-08T06:20:22;9.60;;;6.97;;
20230;SDS011;10274;49.022;9.338;2023-04-08T06:22:49;8.13;;;6.20;;
20230;SDS011;10274;49.022;9.338;2023-04-08T06:25:16;7.63;;;5.97;;
20230;SDS011;10274;49.022;9.338;2023-04-08T06:27:43;8.43;;;5.57;;
20230;SDS011;10274;49.022;9.338;2023-04-08T06:30:10;9.03;;;6.50;;
20230;SDS011;10274;49.022;9.338;2023-04-08T06:32:37;7.93;;;6.03;;
20230;SDS011;10274;49.022;9.338;2023-04-08T06:35:05;9.63;;;6.77;;
20230;SDS011;10274;49.022;9.338;2023-04-08T06:37:32;8.50;;;6.00;;
20230;SDS011;10274;49.022;9.338;2023-04-08T06:40:02;9.13;;;5.80;;
20230;SDS011;10274;49.022;9.338;2023-04-08T06:42:30;11.20;;;6.07;;
20230;SDS011;10274;49.022;9.338;2023-04-08T06:44:57;11.33;;;6.27;;
20230;SDS011;10274;49.022;9.338;2023-04-08T06:47:23;7.47;;;5.67;;
20230;SDS011;10274;49.022;9.338;2023-04-08T06:49:50;8.77;;;5.73;;
20230;SDS011;10274;49.022;9.338;2023-04-08T06:52:19;9.47;;;6.03;;
20230;SDS011;10274;49.022;9.338;2023-04-08T06:54:46;8.37;;;6.27;;
20230;SDS011;10274;49.022;9.338;2023-04-08T06:57:13;9.47;;;5.93;;
20230;SDS011;10274;49.022;9.338;2023-04-08T06:59:39;7.70;;;6.03;;
20230;SDS011;10274;49.022;9.338;2023-04-08T07:02:06;7.97;;;5.50;;
20230;SDS011;10274;49.022;9.338;2023-04-08T07:04:33;8.93;;;6.37;;
20230;SDS011;10274;49.022;9.338;2023-04-08T07:06:59;9.63;;;6.73;;
20230;SDS011;10274;49.022;9.338;2023-04-08T07:09:27;8.50;;;5.90;;
20230;SDS011;10274;49.022;9.338;2023-04-08T07:11:54;10.40;;;6.60;;
20230;SDS011;10274;49.022;9.338;2023-04-08T07:14:22;10.53;;;6.03;;
20230;SDS011;10274;49.022;9.338;2023-04-08T07:16:49;7.40;;;5.67;;
20230;SDS011;10274;49.022;9.338;2023-04-08T07:19:15;7.73;;;5.77;;
20230;SDS011;10274;49.022;9.338;2023-04-08T07:21:42;10.17;;;6.20;;
20230;SDS011;10274;49.022;9.338;2023-04-08T07:24:09;7.70;;;5.70;;
20230;SDS011;10274;49.022;9.338;2023-04-08T07:26:38;8.43;;;5.70;;
20230;SDS011;10274;49.022;9.338;2023-04-08T07:29:04;8.37;;;6.37;;
20230;SDS011;10274;49.022;9.338;2023-04-08T07:31:31;9.40;;;5.87;;
20230;SDS011;10274;49.022;9.338;2023-04-08T07:33:58;7.03;;;5.83;;
20230;SDS011;10274;49.022;9.338;2023-04-08T07:36:25;8.77;;;5.57;;
20230;SDS011;10274;49.022;9.338;2023-04-08T07:38:52;8.50;;;5.13;;
20230;SDS011;10274;49.022;9.338;2023-04-08T07:41:18;9.40;;;5.50;;
20230;SDS011;10274;49.022;9.338;2023-04-08T07:43:47;6.97;;;4.73;;
20230;SDS011;10274;49.022;9.338;2023-04-08T07:46:13;5.53;;;4.47;;
20230;SDS011;10274;49.022;9.338;2023-04-08T07:48:40;7.13;;;4.60;;
20230;SDS011;10274;49.022;9.338;2023-04-08T07:51:07;5.00;;;3.97;;
20230;SDS011;10274;49.022;9.338;2023-04-08T07:53:35;5.77;;;4.23;;
20230;SDS011;10274;49.022;9.338;2023-04-08T07:56:01;7.10;;;4.73;;
20230;SDS011;10274;49.022;9.338;2023-04-08T07:58:29;6.03;;;4.30;;
20230;SDS011;10274;49.022;9.338;2023-04-08T08:00:57;6.07;;;4.17;;
20230;SDS011;10274;49.022;9.338;2023-04-08T08:03:24;7.47;;;4.60;;
20230;SDS011;10274;49.022;9.338;2023-04-08T08:05:51;6.37;;;4.57;;
20230;SDS011;10274;49.022;9.338;2023-04-08T08:08:17;6.37;;;4.50;;
20230;SDS011;10274;49.022;9.338;2023-04-08T08:10:44;5.20;;;4.03;;
20230;SDS011;10274;49.022;9.338;2023-04-08T08:13:11;5.47;;;4.13;;
20230;SDS011;10274;49.022;9.338;2023-04-08T08:15:41;5.57;;;4.60;;
20230;SDS011;10274;49.022;9.338;2023-04-08T08:18:09;6.03;;;4.50;;
20230;SDS011;10274;49.022;9.338;2023-04-08T08:20:35;5.30;;;4.30;;
20230;SDS011;10274;49.022;9.338;2023-04-08T08:23:02;6.10;;;5.00;;
20230;SDS011;10274;49.022;9.338;2023-04-08T08:25:29;7.03;;;4.80;;
20230;SDS011;10274;49.022;9.338;2023-04-08T08:27:56;6.90;;;4.77;;
20230;SDS011;10274;49.022;9.338;2023-04-08T08:30:22;6.87;;;4.60;;
20230;SDS011;10274;49.022;9.338;2023-04-08T08:32:50;6.47;;;4.80;;
20230;SDS011;10274;49.022;9.338;2023-04-08T08:35:18;7.87;;;4.77;;
20230;SDS011;10274;49.022;9.338;2023-04-08T08:37:45;5.30;;;3.60;;
20230;SDS011;10274;49.022;9.338;2023-04-08T08:40:12;4.40;;;4.00;;
20230;SDS011;10274;49.022;9.338;2023-04-08T08:42:39;5.97;;;4.00;;
20230;SDS011;10274;49.022;9.338;2023-04-08T08:45:07;3.83;;;3.43;;
20230;SDS011;10274;49.022;9.338;2023-04-08T08:47:34;5.50;;;3.97;;
20230;SDS011;10274;49.022;9.338;2023-04-08T08:50:01;5.33;;;3.93;;
20230;SDS011;10274;49.022;9.338;2023-04-08T08:52:30;5.57;;;3.57;;
20230;SDS011;10274;49.022;9.338;2023-04-08T08:54:57;5.07;;;4.37;;
20230;SDS011;10274;49.022;9.338;2023-04-08T08:57:25;5.53;;;3.50;;
20230;SDS011;10274;49.022;9.338;2023-04-08T08:59:52;4.97;;;3.93;;
20230;SDS011;10274;49.022;9.338;2023-04-08T09:02:22;3.87;;;3.27;;
20230;SDS011;10274;49.022;9.338;2023-04-08T09:04:57;5.63;;;3.97;;
20230;SDS011;10274;49.022;9.338;2023-04-08T09:07:25;6.63;;;4.50;;
20230;SDS011;10274;49.022;9.338;2023-04-08T09:09:55;4.97;;;3.90;;
20230;SDS011;10274;49.022;9.338;2023-04-08T09:12:23;5.27;;;3.80;;
20230;SDS011;10274;49.022;9.338;2023-04-08T09:14:51;5.77;;;3.37;;
20230;SDS011;10274;49.022;9.338;2023-04-08T09:17:31;3.80;;;3.07;;
20230;SDS011;10274;49.022;9.338;2023-04-08T09:20:06;3.60;;;3.30;;
20230;SDS011;10274;49.022;9.338;2023-04-08T09:25:25;5.00;;;3.57;;
20230;SDS011;10274;49.022;9.338;2023-04-08T09:27:53;4.13;;;3.40;;
20230;SDS011;10274;49.022;9.338;2023-04-08T09:30:21;3.90;;;3.40;;
20230;SDS011;10274;49.022;9.338;2023-04-08T09:32:49;5.27;;;4.00;;
20230;SDS011;10274;49.022;9.338;2023-04-08T09:35:17;4.37;;;3.27;;
20230;SDS011;10274;49.022;9.338;2023-04-08T09:37:43;3.80;;;3.27;;
20230;SDS011;10274;49.022;9.338;2023-04-08T09:40:10;4.47;;;3.67;;
20230;SDS011;10274;49.022;9.338;2023-04-08T09:42:42;4.33;;;3.43;;
20230;SDS011;10274;49.022;9.338;2023-04-08T09:45:11;4.20;;;3.27;;
20230;SDS011;10274;49.022;9.338;2023-04-08T09:47:41;4.80;;;3.70;;
20230;SDS011;10274;49.022;9.338;2023-04-08T09:50:16;5.17;;;3.63;;
20230;SDS011;10274;49.022;9.338;2023-04-08T09:52:47;3.67;;;3.10;;
20230;SDS011;10274;49.022;9.338;2023-04-08T09:55:20;4.00;;;3.10;;
20230;SDS011;10274;49.022;9.338;2023-04-08T09:57:50;3.80;;;3.03;;
20230;SDS011;10274;49.022;9.338;2023-04-08T10:00:21;4.03;;;2.97;;
20230;SDS011;10274;49.022;9.338;2023-04-08T10:02:54;7.43;;;3.60;;
20230;SDS011;10274;49.022;9.338;2023-04-08T10:05:22;3.40;;;2.77;;
20230;SDS011;10274;49.022;9.338;2023-04-08T10:07:50;4.97;;;3.70;;
20230;SDS011;10274;49.022;9.338;2023-04-08T10:10:17;4.20;;;3.03;;
20230;SDS011;10274;49.022;9.338;2023-04-08T10:12:44;5.23;;;3.57;;
20230;SDS011;10274;49.022;9.338;2023-04-08T10:15:22;5.50;;;3.90;;
20230;SDS011;10274;49.022;9.338;2023-04-08T10:17:51;5.30;;;3.87;;
20230;SDS011;10274;49.022;9.338;2023-04-08T10:23:08;4.80;;;3.87;;
20230;SDS011;10274;49.022;9.338;2023-04-08T10:25:35;4.63;;;3.47;;
20230;SDS011;10274;49.022;9.338;2023-04-08T10:30:52;4.77;;;3.67;;
20230;SDS011;10274;49.022;9.338;2023-04-08T10:33:20;4.10;;;3.43;;
20230;SDS011;10274;49.022;9.338;2023-04-08T10:35:51;4.37;;;3.47;;
20230;SDS011;10274;49.022;9.338;2023-04-08T10:38:19;4.93;;;3.70;;
20230;SDS011;10274;49.022;9.338;2023-04-08T10:40:46;4.87;;;3.53;;
20230;SDS011;10274;49.022;9.338;2023-04-08T10:43:15;5.50;;;3.83;;
20230;SDS011;10274;49.022;9.338;2023-04-08T10:45:42;5.67;;;4.33;;
20230;SDS011;10274;49.022;9.338;2023-04-08T10:48:11;4.97;;;3.60;;
20230;SDS011;10274;49.022;9.338;2023-04-08T10:50:42;4.53;;;3.60;;
20230;SDS011;10274;49.022;9.338;2023-04-08T10:53:10;5.23;;;3.97;;
20230;SDS011;10274;49.022;9.338;2023-04-08T10:55:36;5.03;;;3.83;;
20230;SDS011;10274;49.022;9.338;2023-04-08T10:58:06;5.27;;;4.07;;
20230;SDS011;10274;49.022;9.338;2023-04-08T11:00:34;5.77;;;4.07;;
20230;SDS011;10274;49.022;9.338;2023-04-08T11:03:02;4.27;;;3.60;;
20230;SDS011;10274;49.022;9.338;2023-04-08T11:05:32;4.47;;;3.50;;
20230;SDS011;10274;49.022;9.338;2023-04-08T11:07:59;4.93;;;3.50;;
20230;SDS011;10274;49.022;9.338;2023-04-08T11:10:26;6.47;;;4.23;;
20230;SDS011;10274;49.022;9.338;2023-04-08T11:12:53;4.23;;;3.67;;
20230;SDS011;10274;49.022;9.338;2023-04-08T11:15:21;4.47;;;2.90;;
20230;SDS011;10274;49.022;9.338;2023-04-08T11:17:49;5.90;;;3.70;;
20230;SDS011;10274;49.022;9.338;2023-04-08T11:20:17;6.13;;;3.87;;
20230;SDS011;10274;49.022;9.338;2023-04-08T11:22:46;5.17;;;3.67;;
20230;SDS011;10274;49.022;9.338;2023-04-08T11:25:13;5.13;;;3.43;;
20230;SDS011;10274;49.022;9.338;2023-04-08T11:27:40;5.23;;;3.93;;
20230;SDS011;10274;49.022;9.338;2023-04-08T11:30:07;4.03;;;3.13;;
20230;SDS011;10274;49.022;9.338;2023-04-08T11:32:36;5.23;;;3.70;;
20230;SDS011;10274;49.022;9.338;2023-04-08T11:35:04;5.60;;;3.80;;
20230;SDS011;10274;49.022;9.338;2023-04-08T11:37:37;5.27;;;3.80;;
20230;SDS011;10274;49.022;9.338;2023-04-08T11:40:09;4.90;;;3.47;;
20230;SDS011;10274;49.022;9.338;2023-04-08T11:42:44;4.90;;;3.77;;
20230;SDS011;10274;49.022;9.338;2023-04-08T11:45:11;3.80;;;3.50;;
20230;SDS011;10274;49.022;9.338;2023-04-08T11:47:40;4.67;;;3.27;;
20230;SDS011;10274;49.022;9.338;2023-04-08T11:50:07;4.40;;;3.37;;
20230;SDS011;10274;49.022;9.338;2023-04-08T11:52:41;3.97;;;3.40;;
20230;SDS011;10274;49.022;9.338;2023-04-08T11:55:10;4.20;;;3.40;;
20230;SDS011;10274;49.022;9.338;2023-04-08T11:57:37;3.47;;;3.17;;
20230;SDS011;10274;49.022;9.338;2023-04-08T12:00:05;3.87;;;3.00;;
20230;SDS011;10274;49.022;9.338;2023-04-08T12:02:33;3.50;;;2.83;;
20230;SDS011;10274;49.022;9.338;2023-04-08T12:05:00;4.10;;;3.33;;
20230;SDS011;10274;49.022;9.338;2023-04-08T12:07:28;4.93;;;3.37;;
20230;SDS011;10274;49.022;9.338;2023-04-08T12:09:55;5.27;;;3.43;;
20230;SDS011;10274;49.022;9.338;2023-04-08T12:12:23;4.10;;;3.23;;
20230;SDS011;10274;49.022;9.338;2023-04-08T12:14:50;4.63;;;3.33;;
20230;SDS011;10274;49.022;9.338;2023-04-08T12:17:17;3.30;;;2.97;;
20230;SDS011;10274;49.022;9.338;2023-04-08T12:19:43;3.67;;;3.03;;
20230;SDS011;10274;49.022;9.338;2023-04-08T12:22:10;3.70;;;2.97;;
20230;SDS011;10274;49.022;9.338;2023-04-08T12:24:37;3.83;;;2.70;;
20230;SDS011;10274;49.022;9.338;2023-04-08T12:27:04;4.03;;;2.37;;
20230;SDS011;10274;49.022;9.338;2023-04-08T12:29:32;2.73;;;2.40;;
20230;SDS011;10274;49.022;9.338;2023-04-08T12:31:59;3.77;;;2.80;;
20230;SDS011;10274;49.022;9.338;2023-04-08T12:34:26;5.83;;;2.93;;
20230;SDS011;10274;49.022;9.338;2023-04-08T12:36:53;3.87;;;2.67;;
20230;SDS011;10274;49.022;9.338;2023-04-08T12:39:20;2.97;;;2.07;;
20230;SDS011;10274;49.022;9.338;2023-04-08T12:41:47;4.87;;;2.53;;
20230;SDS011;10274;49.022;9.338;2023-04-08T12:44:14;4.33;;;2.47;;
20230;SDS011;10274;49.022;9.338;2023-04-08T12:46:42;3.77;;;2.27;;
20230;SDS011;10274;49.022;9.338;2023-04-08T12:49:08;4.70;;;2.30;;
20230;SDS011;10274;49.022;9.338;2023-04-08T12:51:36;2.50;;;2.20;;
20230;SDS011;10274;49.022;9.338;2023-04-08T12:54:03;2.53;;;2.33;;
20230;SDS011;10274;49.022;9.338;2023-04-08T12:56:29;3.27;;;2.63;;
20230;SDS011;10274;49.022;9.338;2023-04-08T12:58:57;2.80;;;2.57;;
20230;SDS011;10274;49.022;9.338;2023-04-08T13:01:23;3.33;;;2.10;;
20230;SDS011;10274;49.022;9.338;2023-04-08T13:03:51;3.00;;;2.70;;
20230;SDS011;10274;49.022;9.338;2023-04-08T13:06:18;7.83;;;2.63;;
20230;SDS011;10274;49.022;9.338;2023-04-08T13:08:45;2.80;;;2.40;;
20230;SDS011;10274;49.022;9.338;2023-04-08T13:11:12;2.80;;;2.53;;
20230;SDS011;10274;49.022;9.338;2023-04-08T13:13:38;2.57;;;2.37;;
20230;SDS011;10274;49.022;9.338;2023-04-08T13:16:05;3.50;;;2.27;;
20230;SDS011;10274;49.022;9.338;2023-04-08T13:18:32;3.97;;;2.43;;
20230;SDS011;10274;49.022;9.338;2023-04-08T13:21:00;2.97;;;2.43;;
20230;SDS011;10274;49.022;9.338;2023-04-08T13:23:26;3.30;;;2.30;;
20230;SDS011;10274;49.022;9.338;2023-04-08T13:25:53;2.13;;;1.87;;
20230;SDS011;10274;49.022;9.338;2023-04-08T13:28:20;3.57;;;2.40;;
20230;SDS011;10274;49.022;9.338;2023-04-08T13:30:46;2.80;;;2.47;;
20230;SDS011;10274;49.022;9.338;2023-04-08T13:33:13;2.90;;;2.37;;
20230;SDS011;10274;49.022;9.338;2023-04-08T13:35:40;3.00;;;2.60;;
20230;SDS011;10274;49.022;9.338;2023-04-08T13:38:08;2.47;;;2.13;;
20230;SDS011;10274;49.022;9.338;2023-04-08T13:40:35;2.87;;;2.10;;
20230;SDS011;10274;49.022;9.338;2023-04-08T13:43:02;2.90;;;1.77;;
20230;SDS011;10274;49.022;9.338;2023-04-08T13:45:28;3.97;;;2.40;;
20230;SDS011;10274;49.022;9.338;2023-04-08T13:47:55;2.77;;;2.33;;
20230;SDS011;10274;49.022;9.338;2023-04-08T13:50:22;3.07;;;2.10;;
20230;SDS011;10274;49.022;9.338;2023-04-08T13:52:49;2.20;;;2.00;;
20230;SDS011;10274;49.022;9.338;2023-04-08T13:55:17;3.13;;;2.33;;
20230;SDS011;10274;49.022;9.338;2023-04-08T13:57:43;2.50;;;2.10;;
20230;SDS011;10274;49.022;9.338;2023-04-08T14:00:10;3.13;;;2.37;;
20230;SDS011;10274;49.022;9.338;2023-04-08T14:02:38;4.70;;;3.35;;
20230;SDS011;10274;49.022;9.338;2023-04-08T14:05:05;3.60;;;2.57;;
20230;SDS011;10274;49.022;9.338;2023-04-08T14:07:32;2.73;;;2.43;;
20230;SDS011;10274;49.022;9.338;2023-04-08T14:09:59;3.93;;;2.63;;
20230;SDS011;10274;49.022;9.338;2023-04-08T14:12:27;2.40;;;2.10;;
20230;SDS011;10274;49.022;9.338;2023-04-08T14:14:53;3.20;;;2.20;;
20230;SDS011;10274;49.022;9.338;2023-04-08T14:17:20;3.40;;;2.53;;
20230;SDS011;10274;49.022;9.338;2023-04-08T14:19:46;3.23;;;2.60;;
20230;SDS011;10274;49.022;9.338;2023-04-08T14:22:13;2.87;;;2.57;;
20230;SDS011;10274;49.022;9.338;2023-04-08T14:24:41;3.40;;;3.10;;
20230;SDS011;10274;49.022;9.338;2023-04-08T14:27:07;3.43;;;2.70;;
20230;SDS011;10274;49.022;9.338;2023-04-08T14:29:35;2.50;;;2.20;;
20230;SDS011;10274;49.022;9.338;2023-04-08T14:32:02;2.70;;;2.07;;
20230;SDS011;10274;49.022;9.338;2023-04-08T14:34:29;2.13;;;1.90;;
20230;SDS011;10274;49.022;9.338;2023-04-08T14:36:56;3.47;;;2.43;;
20230;SDS011;10274;49.022;9.338;2023-04-08T14:39:22;2.63;;;2.13;;
20230;SDS011;10274;49.022;9.338;2023-04-08T14:41:49;3.13;;;2.53;;
20230;SDS011;10274;49.022;9.338;2023-04-08T14:44:16;4.67;;;2.17;;
20230;SDS011;10274;49.022;9.338;2023-04-08T14:46:44;3.87;;;2.77;;
20230;SDS011;10274;49.022;9.338;2023-04-08T14:49:11;1.80;;;1.70;;
20230;SDS011;10274;49.022;9.338;2023-04-08T14:51:38;4.30;;;2.30;;
20230;SDS011;10274;49.022;9.338;2023-04-08T14:54:05;2.30;;;1.97;;
20230;SDS011;10274;49.022;9.338;2023-04-08T14:56:32;2.53;;;2.20;;